createdAt,value
2018-05-16T00:00:35.160Z,12.40
2018-05-16T00:03:04.259Z,12.40
2018-05-16T00:05:34.156Z,12.40
2018-05-16T00:08:03.234Z,12.40
2018-05-16T00:10:32.319Z,12.40
2018-05-16T00:13:01.471Z,12.50
2018-05-16T00:15:30.648Z,12.50
2018-05-16T00:17:59.740Z,12.60
2018-05-16T00:20:28.869Z,12.60
2018-05-16T00:22:57.984Z,12.50
2018-05-16T00:25:27.098Z,12.60
2018-05-16T00:27:56.212Z,12.50
2018-05-16T00:30:25.296Z,12.50
2018-05-16T00:32:55.153Z,12.40
2018-05-16T00:35:24.261Z,12.40
2018-05-16T00:37:53.424Z,12.50
2018-05-16T00:40:22.532Z,12.40
2018-05-16T00:42:51.664Z,12.40
2018-05-16T00:45:21.512Z,12.30
2018-05-16T00:47:50.684Z,12.30
2018-05-16T00:50:19.848Z,12.40
2018-05-16T00:52:48.958Z,12.30
2018-05-16T00:55:18.132Z,12.30
2018-05-16T00:57:48.017Z,12.20
2018-05-16T01:00:17.104Z,12.20
2018-05-16T01:02:46.183Z,12.20
2018-05-16T01:05:16.030Z,12.10
2018-05-16T01:07:45.102Z,12.10
2018-05-16T01:10:14.263Z,12.20
2018-05-16T01:12:43.398Z,12.20
2018-05-16T01:15:12.500Z,12.20
2018-05-16T01:17:41.607Z,12.20
2018-05-16T01:20:10.696Z,12.20
2018-05-16T01:22:39.889Z,12.20
2018-05-16T01:25:09.764Z,12.10
2018-05-16T01:27:38.912Z,12.10
2018-05-16T01:30:07.995Z,12.10
2018-05-16T01:32:37.104Z,12.10
2018-05-16T01:35:06.247Z,12.10
2018-05-16T01:37:36.247Z,12.10
2018-05-16T01:40:05.397Z,12.10
2018-05-16T01:42:35.326Z,12.10
2018-05-16T01:45:05.199Z,12.10
2018-05-16T01:47:34.316Z,12.00
2018-05-16T01:50:03.459Z,12.10
2018-05-16T01:52:32.644Z,12.10
2018-05-16T01:55:01.728Z,12.10
2018-05-16T01:57:30.831Z,12.10
2018-05-16T01:59:59.906Z,12.10
2018-05-16T02:02:28.988Z,12.10
2018-05-16T02:04:58.078Z,12.10
2018-05-16T02:07:27.164Z,12.10
2018-05-16T02:09:56.247Z,12.20
2018-05-16T02:12:25.350Z,12.10
2018-05-16T02:14:54.551Z,12.20
2018-05-16T02:17:23.667Z,12.20
2018-05-16T02:19:52.790Z,12.20
2018-05-16T02:22:21.952Z,12.20
2018-05-16T02:24:51.035Z,12.20
2018-05-16T02:27:20.146Z,12.20
2018-05-16T02:29:50.051Z,12.20
2018-05-16T02:32:19.132Z,12.20
2018-05-16T02:34:48.212Z,12.30
2018-05-16T02:37:17.332Z,12.30
2018-05-16T02:39:46.446Z,12.20
2018-05-16T02:42:15.727Z,12.20
2018-05-16T02:44:45.604Z,12.30
2018-05-16T02:47:14.683Z,12.30
2018-05-16T02:49:43.763Z,12.30
2018-05-16T02:52:12.932Z,12.40
2018-05-16T02:54:42.039Z,12.30
2018-05-16T02:57:11.155Z,12.40
2018-05-16T02:59:40.324Z,12.50
2018-05-16T03:02:10.205Z,12.40
2018-05-16T03:04:39.341Z,12.40
2018-05-16T03:07:08.455Z,12.40
2018-05-16T03:09:39.900Z,12.50
2018-05-16T03:12:09.018Z,12.50
2018-05-16T03:14:51.097Z,12.40
2018-05-16T03:17:20.167Z,12.40
2018-05-16T03:19:50.100Z,12.40
2018-05-16T03:22:19.948Z,12.40
2018-05-16T03:24:49.027Z,12.40
2018-05-16T03:27:18.136Z,12.40
2018-05-16T03:29:47.276Z,12.40
2018-05-16T03:32:16.450Z,12.40
2018-05-16T03:34:45.523Z,12.40
2018-05-16T03:37:14.656Z,12.40
2018-05-16T03:39:43.772Z,12.40
2018-05-16T03:42:12.887Z,12.40
2018-05-16T03:44:42.001Z,12.40
2018-05-16T03:47:11.175Z,12.50
2018-05-16T03:49:40.285Z,12.50
2018-05-16T03:52:09.432Z,12.40
2018-05-16T03:54:38.580Z,12.50
2018-05-16T03:57:19.487Z,12.50
2018-05-16T04:00:06.522Z,12.60
2018-05-16T04:02:53.695Z,12.60
2018-05-16T04:05:22.775Z,12.70
2018-05-16T04:07:51.941Z,12.70
2018-05-16T04:10:21.816Z,12.70
2018-05-16T04:12:50.895Z,12.70
2018-05-16T04:15:21.159Z,12.80
2018-05-16T04:17:50.267Z,12.70
2018-05-16T04:20:19.374Z,12.80
2018-05-16T04:22:48.451Z,12.90
2018-05-16T04:25:18.359Z,12.90
2018-05-16T04:27:47.500Z,12.80
2018-05-16T04:30:16.650Z,12.90
2018-05-16T04:32:45.862Z,13.00
2018-05-16T04:35:14.921Z,13.00
2018-05-16T04:37:44.797Z,12.90
2018-05-16T04:40:13.874Z,12.80
2018-05-16T04:42:43.777Z,12.90
2018-05-16T04:45:13.697Z,12.90
2018-05-16T04:47:42.807Z,12.90
2018-05-16T04:50:11.920Z,12.90
2018-05-16T04:52:41.059Z,12.90
2018-05-16T04:55:10.963Z,13.10
2018-05-16T04:57:40.047Z,13.10
2018-05-16T05:00:09.155Z,13.10
2018-05-16T05:02:38.260Z,13.10
2018-05-16T05:05:07.407Z,13.10
2018-05-16T05:07:36.483Z,13.20
2018-05-16T05:10:05.627Z,13.20
2018-05-16T05:12:34.768Z,13.40
2018-05-16T05:15:04.651Z,13.70
2018-05-16T05:17:33.794Z,13.60
2018-05-16T05:20:03.678Z,13.70
2018-05-16T05:22:32.785Z,13.70
2018-05-16T05:25:01.867Z,13.80
2018-05-16T05:27:31.015Z,13.80
2018-05-16T05:30:00.134Z,13.70
2018-05-16T05:32:29.308Z,13.80
2018-05-16T05:34:58.446Z,13.90
2018-05-16T05:37:27.632Z,14.00
2018-05-16T05:39:56.712Z,14.10
2018-05-16T05:42:26.653Z,14.30
2018-05-16T05:44:56.568Z,14.30
2018-05-16T05:47:26.446Z,14.30
2018-05-16T05:49:55.659Z,14.20
2018-05-16T05:52:24.739Z,14.30
2018-05-16T05:54:53.853Z,14.30
2018-05-16T05:57:22.969Z,14.40
2018-05-16T05:59:52.113Z,14.40
2018-05-16T06:02:21.223Z,14.50
2018-05-16T06:04:50.393Z,14.50
2018-05-16T06:07:19.505Z,14.60
2018-05-16T06:09:48.583Z,14.70
2018-05-16T06:12:17.754Z,14.70
2018-05-16T06:14:46.871Z,14.70
2018-05-16T06:17:16.017Z,14.60
2018-05-16T06:19:45.118Z,14.70
2018-05-16T06:22:14.235Z,14.80
2018-05-16T06:24:43.343Z,14.70
2018-05-16T06:27:12.514Z,14.80
2018-05-16T06:29:41.564Z,14.90
2018-05-16T06:32:11.282Z,15.00
2018-05-16T06:34:40.400Z,15.20
2018-05-16T06:37:09.837Z,15.20
2018-05-16T06:39:39.740Z,15.30
2018-05-16T06:42:08.856Z,15.30
2018-05-16T06:44:37.967Z,15.40
2018-05-16T06:47:07.112Z,15.60
2018-05-16T06:49:36.190Z,15.80
2018-05-16T06:52:05.340Z,16.00
2018-05-16T06:54:34.455Z,16.10
2018-05-16T06:57:03.576Z,16.10
2018-05-16T06:59:32.684Z,16.10
2018-05-16T07:02:01.759Z,16.20
2018-05-16T07:04:31.663Z,16.50
2018-05-16T07:07:00.803Z,16.50
2018-05-16T07:09:30.704Z,16.60
2018-05-16T07:11:59.800Z,16.60
2018-05-16T07:14:28.936Z,16.60
2018-05-16T07:16:58.080Z,16.50
2018-05-16T07:19:27.264Z,16.50
2018-05-16T07:21:56.376Z,16.80
2018-05-16T07:24:25.521Z,17.00
2018-05-16T07:26:54.624Z,17.10
2018-05-16T07:29:23.764Z,17.00
2018-05-16T07:31:52.877Z,17.40
2018-05-16T07:34:21.999Z,17.70
2018-05-16T07:36:51.112Z,18.00
2018-05-16T07:39:20.224Z,17.90
2018-05-16T07:41:49.336Z,17.80
2018-05-16T07:44:19.244Z,17.90
2018-05-16T07:46:48.366Z,17.90
2018-05-16T07:49:17.468Z,17.80
2018-05-16T07:51:46.729Z,17.60
2018-05-16T07:54:16.571Z,17.30
2018-05-16T07:56:46.513Z,17.40
2018-05-16T07:59:15.621Z,17.40
2018-05-16T08:01:44.699Z,17.60
2018-05-16T08:04:13.774Z,17.80
2018-05-16T08:06:42.848Z,17.70
2018-05-16T08:09:12.750Z,18.10
2018-05-16T08:11:41.855Z,18.10
2018-05-16T08:14:11.024Z,18.30
2018-05-16T08:16:40.140Z,18.60
2018-05-16T08:19:09.251Z,18.80
2018-05-16T08:21:38.335Z,18.50
2018-05-16T08:24:07.475Z,18.60
2018-05-16T08:26:36.688Z,18.70
2018-05-16T08:29:05.861Z,19.10
2018-05-16T08:31:34.980Z,19.50
2018-05-16T08:34:04.082Z,19.50
2018-05-16T08:36:33.953Z,19.40
2018-05-16T08:39:03.087Z,19.40
2018-05-16T08:41:32.168Z,19.50
2018-05-16T08:44:01.274Z,19.50
2018-05-16T08:46:30.342Z,19.70
2018-05-16T08:49:00.416Z,19.70
2018-05-16T08:51:29.486Z,19.70
2018-05-16T08:53:59.395Z,19.70
2018-05-16T08:56:28.498Z,19.70
2018-05-16T08:58:57.601Z,19.80
2018-05-16T09:01:26.764Z,19.70
2018-05-16T09:03:56.669Z,20.00
2018-05-16T09:06:25.972Z,19.90
2018-05-16T09:08:55.060Z,20.10
2018-05-16T09:11:24.199Z,20.00
2018-05-16T09:13:53.386Z,20.10
2018-05-16T09:16:22.530Z,19.90
2018-05-16T09:18:52.440Z,19.60
2018-05-16T09:21:21.858Z,19.60
2018-05-16T09:23:50.963Z,19.60
2018-05-16T09:26:20.091Z,19.70
2018-05-16T09:28:49.936Z,19.80
2018-05-16T09:31:19.905Z,19.80
2018-05-16T09:33:48.983Z,19.80
2018-05-16T09:36:18.922Z,20.00
2018-05-16T09:38:48.524Z,20.00
2018-05-16T09:41:18.366Z,19.80
2018-05-16T09:43:48.264Z,19.80
2018-05-16T09:46:18.926Z,19.80
2018-05-16T09:48:49.439Z,19.90
2018-05-16T09:51:18.606Z,19.90
2018-05-16T09:53:47.775Z,20.20
2018-05-16T09:56:16.880Z,20.20
2018-05-16T09:58:46.007Z,20.20
2018-05-16T10:01:15.152Z,20.40
2018-05-16T10:03:44.255Z,20.60
2018-05-16T10:06:13.327Z,21.00
2018-05-16T10:08:42.395Z,21.10
2018-05-16T10:11:11.554Z,21.20
2018-05-16T10:13:40.639Z,21.40
2018-05-16T10:16:09.788Z,21.60
2018-05-16T10:18:39.652Z,21.60
2018-05-16T10:21:08.722Z,21.60
2018-05-16T10:23:37.882Z,21.50
2018-05-16T10:26:06.959Z,21.30
2018-05-16T10:28:36.069Z,21.30
2018-05-16T10:31:05.965Z,21.40
2018-05-16T10:33:35.060Z,21.40
2018-05-16T10:36:04.188Z,21.80
2018-05-16T10:38:33.696Z,21.80
2018-05-16T10:41:02.800Z,21.90
2018-05-16T10:43:31.947Z,22.00
2018-05-16T10:46:01.834Z,21.70
2018-05-16T10:48:30.928Z,21.60
2018-05-16T10:51:00.038Z,21.60
2018-05-16T10:53:29.115Z,21.50
2018-05-16T10:55:58.211Z,21.50
2018-05-16T10:58:27.282Z,21.50
2018-05-16T11:00:56.384Z,21.50
2018-05-16T11:03:25.492Z,21.50
2018-05-16T11:05:54.611Z,21.50
2018-05-16T11:08:23.713Z,21.50
2018-05-16T11:10:52.916Z,21.80
2018-05-16T11:13:22.019Z,21.70
2018-05-16T11:15:51.108Z,21.90
2018-05-16T11:18:20.977Z,22.20
2018-05-16T11:20:50.117Z,22.10
2018-05-16T11:23:19.244Z,22.00
2018-05-16T11:25:48.341Z,22.10
2018-05-16T11:28:18.528Z,22.00
2018-05-16T11:30:47.595Z,22.00
2018-05-16T11:33:16.715Z,22.10
2018-05-16T11:35:45.812Z,22.20
2018-05-16T11:38:14.919Z,22.20
2018-05-16T11:40:44.016Z,22.30
2018-05-16T11:43:13.160Z,22.30
2018-05-16T11:45:43.052Z,22.40
2018-05-16T11:48:12.128Z,22.40
2018-05-16T11:50:41.243Z,22.40
2018-05-16T11:53:10.345Z,22.60
2018-05-16T11:55:39.472Z,22.70
2018-05-16T11:58:08.534Z,22.60
2018-05-16T12:00:37.711Z,22.60
2018-05-16T12:03:07.093Z,22.40
2018-05-16T12:05:36.224Z,22.40
2018-05-16T12:08:05.356Z,22.20
2018-05-16T12:10:34.494Z,22.00
2018-05-16T12:13:03.558Z,21.80
2018-05-16T12:15:32.764Z,21.80
2018-05-16T12:18:02.193Z,21.90
2018-05-16T12:20:31.305Z,22.20
2018-05-16T12:23:00.449Z,22.30
2018-05-16T12:25:29.520Z,22.40
2018-05-16T12:27:58.612Z,22.30
2018-05-16T12:30:27.722Z,22.40
2018-05-16T12:32:57.547Z,23.20
2018-05-16T12:35:27.444Z,23.30
2018-05-16T12:37:56.526Z,23.30
2018-05-16T12:40:25.625Z,23.20
2018-05-16T12:43:12.701Z,23.30
2018-05-16T12:45:41.803Z,23.00
2018-05-16T12:48:11.007Z,22.80
2018-05-16T12:50:40.086Z,22.70
2018-05-16T12:53:09.212Z,22.90
2018-05-16T12:55:38.355Z,23.10
2018-05-16T12:58:07.418Z,23.10
2018-05-16T13:00:36.519Z,23.00
2018-05-16T13:03:05.613Z,23.00
2018-05-16T13:05:34.745Z,23.30
2018-05-16T13:08:03.947Z,23.20
2018-05-16T13:10:33.078Z,23.30
2018-05-16T13:13:02.214Z,23.40
2018-05-16T13:15:31.305Z,23.10
2018-05-16T13:18:01.355Z,22.80
2018-05-16T13:20:30.468Z,22.60
2018-05-16T13:22:59.574Z,22.60
2018-05-16T13:25:29.073Z,22.50
2018-05-16T13:27:58.184Z,22.40
2018-05-16T13:30:27.339Z,22.50
2018-05-16T13:32:56.438Z,22.90
2018-05-16T13:35:25.843Z,22.90
2018-05-16T13:37:54.957Z,22.90
2018-05-16T13:40:24.056Z,23.00
2018-05-16T13:42:53.119Z,22.90
2018-05-16T13:45:23.032Z,22.90
2018-05-16T13:47:52.937Z,23.20
2018-05-16T13:50:22.068Z,23.20
2018-05-16T13:52:51.251Z,23.60
2018-05-16T13:55:20.351Z,23.60
2018-05-16T13:57:49.424Z,23.90
2018-05-16T14:00:18.559Z,24.00
2018-05-16T14:02:47.652Z,24.50
2018-05-16T14:05:16.817Z,24.50
2018-05-16T14:07:45.920Z,24.00
2018-05-16T14:10:15.447Z,24.00
2018-05-16T14:12:44.581Z,24.00
2018-05-16T14:15:14.797Z,24.10
2018-05-16T14:17:43.986Z,24.10
2018-05-16T14:20:13.131Z,24.10
2018-05-16T14:22:42.736Z,24.40
2018-05-16T14:25:11.831Z,24.50
2018-05-16T14:27:41.000Z,24.30
2018-05-16T14:30:10.909Z,23.50
2018-05-16T14:32:39.958Z,23.50
2018-05-16T14:35:09.023Z,23.40
2018-05-16T14:37:38.116Z,23.20
2018-05-16T14:40:07.187Z,23.10
2018-05-16T14:42:36.432Z,23.10
2018-05-16T14:45:05.495Z,23.20
2018-05-16T14:47:34.598Z,23.40
2018-05-16T14:50:04.493Z,23.90
2018-05-16T14:52:34.300Z,23.90
2018-05-16T14:55:03.409Z,23.60
2018-05-16T14:57:32.508Z,23.20
2018-05-16T15:00:01.580Z,22.80
2018-05-16T15:02:31.403Z,22.40
2018-05-16T15:05:00.496Z,22.40
2018-05-16T15:07:30.401Z,22.30
2018-05-16T15:09:59.549Z,22.20
2018-05-16T15:12:29.421Z,22.60
2018-05-16T15:14:58.592Z,22.60
2018-05-16T15:17:28.835Z,22.40
2018-05-16T15:19:58.772Z,22.50
2018-05-16T15:22:27.961Z,22.40
2018-05-16T15:24:57.067Z,22.50
2018-05-16T15:27:27.003Z,22.10
2018-05-16T15:29:56.091Z,22.10
2018-05-16T15:32:25.260Z,22.20
2018-05-16T15:34:54.416Z,22.10
2018-05-16T15:37:23.589Z,22.00
2018-05-16T15:39:52.697Z,21.90
2018-05-16T15:42:21.861Z,21.80
2018-05-16T15:44:50.936Z,21.60
2018-05-16T15:47:20.007Z,21.40
2018-05-16T15:49:49.830Z,21.40
2018-05-16T15:52:19.799Z,21.50
2018-05-16T15:54:48.904Z,21.40
2018-05-16T15:57:17.974Z,21.40
2018-05-16T15:59:47.173Z,21.40
2018-05-16T16:02:16.198Z,21.40
2018-05-16T16:04:45.352Z,21.20
2018-05-16T16:07:14.416Z,21.20
2018-05-16T16:09:43.586Z,21.20
2018-05-16T16:12:12.655Z,21.30
2018-05-16T16:14:41.751Z,21.30
2018-05-16T16:17:11.647Z,21.30
2018-05-16T16:19:40.740Z,21.30
2018-05-16T16:22:09.867Z,21.30
2018-05-16T16:24:39.023Z,21.40
2018-05-16T16:27:08.916Z,21.50
2018-05-16T16:29:38.033Z,21.40
2018-05-16T16:32:07.156Z,21.70
2018-05-16T16:34:36.337Z,21.80
2018-05-16T16:37:05.463Z,22.00
2018-05-16T16:39:34.563Z,21.80
2018-05-16T16:42:03.804Z,21.90
2018-05-16T16:44:32.872Z,21.80
2018-05-16T16:47:01.943Z,21.80
2018-05-16T16:49:31.835Z,21.50
2018-05-16T16:52:00.906Z,21.60
2018-05-16T16:54:30.002Z,21.40
2018-05-16T16:56:59.257Z,21.30
2018-05-16T16:59:28.384Z,21.30
2018-05-16T17:01:57.458Z,21.20
2018-05-16T17:04:27.332Z,21.20
2018-05-16T17:06:56.462Z,21.20
2018-05-16T17:09:26.495Z,21.30
2018-05-16T17:11:55.588Z,21.30
2018-05-16T17:14:27.949Z,21.30
2018-05-16T17:16:57.093Z,21.30
2018-05-16T17:19:26.955Z,21.10
2018-05-16T17:21:56.016Z,21.10
2018-05-16T17:24:25.180Z,21.10
2018-05-16T17:26:54.384Z,21.10
2018-05-16T17:29:24.182Z,21.00
2018-05-16T17:31:54.172Z,21.00
2018-05-16T17:34:23.333Z,21.00
2018-05-16T17:36:52.716Z,21.00
2018-05-16T17:39:21.855Z,20.90
2018-05-16T17:41:50.960Z,20.90
2018-05-16T17:44:20.111Z,20.90
2018-05-16T17:46:49.176Z,20.80
2018-05-16T17:49:18.249Z,20.70
2018-05-16T17:51:47.328Z,20.70
2018-05-16T17:54:16.495Z,20.60
2018-05-16T17:56:45.632Z,20.50
2018-05-16T17:59:15.550Z,20.40
2018-05-16T18:01:44.639Z,20.40
2018-05-16T18:04:13.736Z,20.40
2018-05-16T18:06:42.835Z,20.40
2018-05-16T18:09:11.902Z,20.30
2018-05-16T18:11:41.816Z,20.30
2018-05-16T18:14:28.920Z,20.30
2018-05-16T18:17:15.997Z,20.30
2018-05-16T18:19:45.883Z,20.10
2018-05-16T18:22:15.024Z,20.10
2018-05-16T18:24:44.188Z,20.10
2018-05-16T18:27:13.316Z,20.00
2018-05-16T18:29:42.417Z,20.00
2018-05-16T18:32:11.545Z,20.00
2018-05-16T18:34:40.713Z,19.90
2018-05-16T18:37:09.879Z,19.80
2018-05-16T18:39:39.023Z,19.80
2018-05-16T18:42:08.134Z,19.80
2018-05-16T18:44:37.244Z,19.70
2018-05-16T18:47:07.110Z,19.60
2018-05-16T18:49:36.243Z,19.60
2018-05-16T18:52:05.345Z,19.60
2018-05-16T18:54:35.341Z,19.40
2018-05-16T18:57:04.445Z,19.40
2018-05-16T18:59:33.552Z,19.40
2018-05-16T19:02:02.694Z,19.40
2018-05-16T19:04:31.862Z,19.30
2018-05-16T19:07:01.819Z,19.30
2018-05-16T19:09:30.932Z,19.30
2018-05-16T19:12:00.105Z,19.20
2018-05-16T19:14:29.190Z,19.20
2018-05-16T19:16:58.348Z,19.20
2018-05-16T19:19:27.442Z,19.10
2018-05-16T19:21:57.353Z,19.10
2018-05-16T19:24:26.436Z,19.00
2018-05-16T19:26:55.585Z,19.00
2018-05-16T19:29:24.618Z,19.00
2018-05-16T19:31:53.752Z,19.00
2018-05-16T19:34:22.852Z,19.00
2018-05-16T19:36:51.921Z,18.90
2018-05-16T19:39:21.825Z,18.90
2018-05-16T19:41:50.950Z,18.80
2018-05-16T19:44:20.915Z,18.90
2018-05-16T19:46:49.996Z,18.80
2018-05-16T19:49:19.098Z,18.90
2018-05-16T19:51:48.214Z,18.80
2018-05-16T19:54:17.319Z,18.80
2018-05-16T19:56:47.209Z,18.70
2018-05-16T19:59:16.313Z,18.70
2018-05-16T20:01:45.392Z,18.70
2018-05-16T20:04:15.240Z,18.60
2018-05-16T20:06:44.374Z,18.60
2018-05-16T20:09:13.493Z,18.60
2018-05-16T20:11:42.652Z,18.60
2018-05-16T20:14:11.725Z,18.60
2018-05-16T20:16:40.893Z,18.60
2018-05-16T20:19:10.077Z,18.60
2018-05-16T20:21:39.186Z,18.60
2018-05-16T20:24:08.260Z,18.60
2018-05-16T20:26:37.333Z,18.60
2018-05-16T20:29:07.261Z,18.60
2018-05-16T20:31:36.623Z,18.60
2018-05-16T20:34:05.922Z,18.60
2018-05-16T20:36:35.026Z,18.60
2018-05-16T20:39:04.217Z,18.60
2018-05-16T20:41:33.377Z,18.60
2018-05-16T20:44:02.509Z,18.60
2018-05-16T20:46:32.403Z,18.50
2018-05-16T20:49:01.629Z,18.50
2018-05-16T20:51:30.727Z,18.50
2018-05-16T20:53:59.791Z,18.50
2018-05-16T20:56:29.623Z,18.40
2018-05-16T20:58:59.489Z,18.40
2018-05-16T21:01:28.660Z,18.30
2018-05-16T21:03:58.571Z,18.20
2018-05-16T21:06:27.730Z,18.20
2018-05-16T21:08:56.832Z,18.20
2018-05-16T21:11:25.928Z,18.20
2018-05-16T21:13:55.759Z,18.00
2018-05-16T21:16:25.644Z,18.00
2018-05-16T21:18:55.004Z,18.00
2018-05-16T21:21:24.163Z,18.00
2018-05-16T21:23:53.310Z,18.00
2018-05-16T21:26:23.183Z,17.90
2018-05-16T21:28:52.347Z,17.90
2018-05-16T21:31:22.419Z,17.80
2018-05-16T21:33:51.555Z,17.80
2018-05-16T21:36:20.625Z,17.80
2018-05-16T21:38:49.785Z,17.80
2018-05-16T21:41:18.851Z,17.80
2018-05-16T21:43:48.834Z,17.70
2018-05-16T21:46:18.928Z,17.80
2018-05-16T21:48:48.092Z,17.80
2018-05-16T21:51:18.664Z,17.80
2018-05-16T21:53:48.554Z,17.80
2018-05-16T21:56:18.444Z,17.80
2018-05-16T21:58:47.777Z,17.80
2018-05-16T22:01:16.848Z,17.70
2018-05-16T22:03:46.764Z,17.70
2018-05-16T22:06:17.628Z,17.70
2018-05-16T22:08:47.459Z,17.70
2018-05-16T22:11:17.920Z,17.70
2018-05-16T22:13:46.990Z,17.60
2018-05-16T22:16:17.020Z,17.60
2018-05-16T22:18:46.298Z,17.60
2018-05-16T22:21:16.236Z,17.60
2018-05-16T22:23:45.340Z,17.60
2018-05-16T22:26:14.444Z,17.60
2018-05-16T22:28:43.560Z,17.50
2018-05-16T22:31:18.524Z,17.50
2018-05-16T22:33:53.340Z,17.40
2018-05-16T22:36:28.148Z,17.30
2018-05-16T22:39:05.221Z,17.40
2018-05-16T22:41:40.164Z,17.30
2018-05-16T22:44:25.968Z,17.30
2018-05-16T22:46:55.264Z,17.30
2018-05-16T22:49:25.350Z,17.20
2018-05-16T22:51:55.413Z,17.20
2018-05-16T22:54:24.511Z,17.10
2018-05-16T22:56:53.574Z,17.00
2018-05-16T22:59:22.746Z,17.00
2018-05-16T23:01:51.796Z,17.00
2018-05-16T23:04:21.710Z,16.90
2018-05-16T23:06:50.831Z,16.90
2018-05-16T23:09:20.722Z,16.80
2018-05-16T23:11:50.024Z,16.80
2018-05-16T23:14:19.274Z,16.70
2018-05-16T23:16:48.446Z,16.60
2018-05-16T23:19:17.514Z,16.60
2018-05-16T23:21:46.639Z,16.50
2018-05-16T23:24:16.507Z,16.40
2018-05-16T23:26:46.148Z,16.40
2018-05-16T23:29:15.335Z,16.40
2018-05-16T23:31:44.436Z,16.40
2018-05-16T23:34:13.498Z,16.30
2018-05-16T23:36:44.105Z,16.30
2018-05-16T23:39:13.244Z,16.30
2018-05-16T23:41:42.354Z,16.30
2018-05-16T23:44:11.512Z,16.20
2018-05-16T23:46:40.634Z,16.20
2018-05-16T23:49:09.731Z,16.20
2018-05-16T23:51:39.600Z,16.00
2018-05-16T23:54:09.039Z,16.00
2018-05-16T23:56:38.218Z,16.10
2018-05-16T23:59:07.347Z,16.00
